sensor_id;sensor_type;location;lat;lon;timestamp;temperature;humidity
37232;DHT22;23125;48.156;15.954;2024-03-23T00:53:33;14.20;54.80
37232;DHT22;23125;48.156;15.954;2024-03-23T00:56:00;14.20;54.80
37232;DHT22;23125;48.156;15.954;2024-03-23T00:58:26;14.20;54.80
37232;DHT22;23125;48.156;15.954;2024-03-23T01:00:51;14.20;54.90
37232;DHT22;23125;48.156;15.954;2024-03-23T01:03:17;14.20;55.00
37232;DHT22;23125;48.156;15.954;2024-03-23T01:05:43;14.20;55.00
37232;DHT22;23125;48.156;15.954;2024-03-23T01:08:09;14.20;55.00
37232;DHT22;23125;48.156;15.954;2024-03-23T01:10:35;14.20;55.10
37232;DHT22;23125;48.156;15.954;2024-03-23T01:13:01;14.20;55.10
37232;DHT22;23125;48.156;15.954;2024-03-23T01:15:26;14.20;55.10
37232;DHT22;23125;48.156;15.954;2024-03-23T01:17:52;14.20;55.20
37232;DHT22;23125;48.156;15.954;2024-03-23T01:20:18;14.20;55.20
37232;DHT22;23125;48.156;15.954;2024-03-23T01:22:44;14.20;55.20
37232;DHT22;23125;48.156;15.954;2024-03-23T01:25:10;14.20;55.20
37232;DHT22;23125;48.156;15.954;2024-03-23T01:27:36;14.20;55.30
37232;DHT22;23125;48.156;15.954;2024-03-23T01:30:01;14.10;55.20
37232;DHT22;23125;48.156;15.954;2024-03-23T01:32:27;14.10;55.30
37232;DHT22;23125;48.156;15.954;2024-03-23T01:34:53;14.10;55.40
37232;DHT22;23125;48.156;15.954;2024-03-23T01:37:19;14.10;55.50
37232;DHT22;23125;48.156;15.954;2024-03-23T01:39:44;14.10;55.60
37232;DHT22;23125;48.156;15.954;2024-03-23T01:42:11;14.10;55.70
37232;DHT22;23125;48.156;15.954;2024-03-23T01:44:37;14.10;55.70
37232;DHT22;23125;48.156;15.954;2024-03-23T01:47:03;14.10;55.70
37232;DHT22;23125;48.156;15.954;2024-03-23T01:49:29;14.10;55.70
37232;DHT22;23125;48.156;15.954;2024-03-23T01:51:56;14.10;55.70
37232;DHT22;23125;48.156;15.954;2024-03-23T01:54:23;14.10;55.70
37232;DHT22;23125;48.156;15.954;2024-03-23T01:56:49;14.10;55.70
37232;DHT22;23125;48.156;15.954;2024-03-23T01:59:15;14.10;55.70
37232;DHT22;23125;48.156;15.954;2024-03-23T02:01:41;14.10;55.80
37232;DHT22;23125;48.156;15.954;2024-03-23T02:04:06;14.00;55.80
37232;DHT22;23125;48.156;15.954;2024-03-23T02:06:34;14.10;55.90
37232;DHT22;23125;48.156;15.954;2024-03-23T02:09:01;14.10;55.90
37232;DHT22;23125;48.156;15.954;2024-03-23T02:11:26;14.10;55.90
37232;DHT22;23125;48.156;15.954;2024-03-23T02:13:53;14.00;55.90
37232;DHT22;23125;48.156;15.954;2024-03-23T02:16:18;14.00;56.00
37232;DHT22;23125;48.156;15.954;2024-03-23T02:18:44;14.10;55.90
37232;DHT22;23125;48.156;15.954;2024-03-23T02:21:10;14.00;55.90
37232;DHT22;23125;48.156;15.954;2024-03-23T02:23:36;13.90;56.00
37232;DHT22;23125;48.156;15.954;2024-03-23T02:26:02;14.00;56.30
37232;DHT22;23125;48.156;15.954;2024-03-23T02:28:28;14.00;56.30
37232;DHT22;23125;48.156;15.954;2024-03-23T02:30:54;13.90;56.20
37232;DHT22;23125;48.156;15.954;2024-03-23T02:33:19;14.00;56.30
37232;DHT22;23125;48.156;15.954;2024-03-23T02:35:46;14.00;57.00
37232;DHT22;23125;48.156;15.954;2024-03-23T02:38:12;13.90;56.50
37232;DHT22;23125;48.156;15.954;2024-03-23T02:40:38;13.90;56.50
37232;DHT22;23125;48.156;15.954;2024-03-23T02:43:04;14.00;56.60
37232;DHT22;23125;48.156;15.954;2024-03-23T02:45:31;13.90;56.50
37232;DHT22;23125;48.156;15.954;2024-03-23T02:47:57;14.00;56.60
37232;DHT22;23125;48.156;15.954;2024-03-23T02:50:23;14.00;56.70
37232;DHT22;23125;48.156;15.954;2024-03-23T02:52:49;14.00;56.60
37232;DHT22;23125;48.156;15.954;2024-03-23T02:55:15;13.90;57.10
37232;DHT22;23125;48.156;15.954;2024-03-23T02:57:41;13.90;56.60
37232;DHT22;23125;48.156;15.954;2024-03-23T03:00:07;13.90;56.80
37232;DHT22;23125;48.156;15.954;2024-03-23T03:02:34;14.00;56.90
37232;DHT22;23125;48.156;15.954;2024-03-23T03:05:00;13.90;56.90
37232;DHT22;23125;48.156;15.954;2024-03-23T03:07:26;13.90;56.90
37232;DHT22;23125;48.156;15.954;2024-03-23T03:09:52;13.90;56.90
37232;DHT22;23125;48.156;15.954;2024-03-23T03:12:17;13.90;56.90
37232;DHT22;23125;48.156;15.954;2024-03-23T03:14:43;13.90;57.00
37232;DHT22;23125;48.156;15.954;2024-03-23T03:17:09;13.90;56.90
37232;DHT22;23125;48.156;15.954;2024-03-23T03:19:35;13.90;56.90
37232;DHT22;23125;48.156;15.954;2024-03-23T03:22:01;13.90;56.90
37232;DHT22;23125;48.156;15.954;2024-03-23T03:24:27;13.90;57.00
37232;DHT22;23125;48.156;15.954;2024-03-23T03:26:52;13.90;56.90
37232;DHT22;23125;48.156;15.954;2024-03-23T03:29:18;13.90;57.00
37232;DHT22;23125;48.156;15.954;2024-03-23T03:31:44;13.90;57.10
37232;DHT22;23125;48.156;15.954;2024-03-23T03:34:10;13.90;57.10
37232;DHT22;23125;48.156;15.954;2024-03-23T03:36:36;13.90;57.20
37232;DHT22;23125;48.156;15.954;2024-03-23T03:39:01;13.90;57.20
37232;DHT22;23125;48.156;15.954;2024-03-23T03:41:31;13.90;57.20
37232;DHT22;23125;48.156;15.954;2024-03-23T03:43:58;13.90;57.30
37232;DHT22;23125;48.156;15.954;2024-03-23T03:46:30;13.90;57.40
37232;DHT22;23125;48.156;15.954;2024-03-23T03:48:56;13.90;57.40
37232;DHT22;23125;48.156;15.954;2024-03-23T03:51:22;13.90;57.40
37232;DHT22;23125;48.156;15.954;2024-03-23T03:53:48;13.90;57.40
37232;DHT22;23125;48.156;15.954;2024-03-23T03:56:14;13.90;57.40
37232;DHT22;23125;48.156;15.954;2024-03-23T03:58:40;13.90;57.40
37232;DHT22;23125;48.156;15.954;2024-03-23T04:01:06;13.90;57.40
37232;DHT22;23125;48.156;15.954;2024-03-23T04:03:32;13.90;57.50
37232;DHT22;23125;48.156;15.954;2024-03-23T04:05:58;13.90;57.50
37232;DHT22;23125;48.156;15.954;2024-03-23T04:08:24;13.90;57.60
37232;DHT22;23125;48.156;15.954;2024-03-23T04:10:50;13.90;57.70
37232;DHT22;23125;48.156;15.954;2024-03-23T04:13:16;13.90;57.70
37232;DHT22;23125;48.156;15.954;2024-03-23T04:15:42;13.90;57.80
37232;DHT22;23125;48.156;15.954;2024-03-23T04:18:08;13.90;57.80
37232;DHT22;23125;48.156;15.954;2024-03-23T04:20:34;13.90;57.80
37232;DHT22;23125;48.156;15.954;2024-03-23T04:23:00;13.90;57.80
37232;DHT22;23125;48.156;15.954;2024-03-23T04:25:26;13.90;57.80
37232;DHT22;23125;48.156;15.954;2024-03-23T04:27:51;13.90;57.80
37232;DHT22;23125;48.156;15.954;2024-03-23T04:30:17;13.90;57.80
37232;DHT22;23125;48.156;15.954;2024-03-23T04:32:44;13.90;57.90
37232;DHT22;23125;48.156;15.954;2024-03-23T04:35:09;13.90;57.90
37232;DHT22;23125;48.156;15.954;2024-03-23T04:37:38;13.90;57.90
37232;DHT22;23125;48.156;15.954;2024-03-23T04:40:07;13.90;57.90
37232;DHT22;23125;48.156;15.954;2024-03-23T04:42:33;13.90;57.90
37232;DHT22;23125;48.156;15.954;2024-03-23T04:45:00;13.90;58.00
37232;DHT22;23125;48.156;15.954;2024-03-23T04:47:26;13.90;58.00
37232;DHT22;23125;48.156;15.954;2024-03-23T04:49:52;13.90;58.00
37232;DHT22;23125;48.156;15.954;2024-03-23T04:52:18;13.90;58.10
37232;DHT22;23125;48.156;15.954;2024-03-23T04:54:44;13.90;58.10
37232;DHT22;23125;48.156;15.954;2024-03-23T04:57:11;13.90;58.10
37232;DHT22;23125;48.156;15.954;2024-03-23T04:59:37;13.90;58.10
37232;DHT22;23125;48.156;15.954;2024-03-23T05:02:03;13.90;58.20
37232;DHT22;23125;48.156;15.954;2024-03-23T05:04:29;13.90;58.20
37232;DHT22;23125;48.156;15.954;2024-03-23T05:06:55;13.90;58.20
37232;DHT22;23125;48.156;15.954;2024-03-23T05:09:22;13.90;58.20
37232;DHT22;23125;48.156;15.954;2024-03-23T05:11:48;13.90;58.20
37232;DHT22;23125;48.156;15.954;2024-03-23T05:14:14;13.90;58.30
37232;DHT22;23125;48.156;15.954;2024-03-23T05:16:40;14.00;58.30
37232;DHT22;23125;48.156;15.954;2024-03-23T05:19:06;14.00;58.40
37232;DHT22;23125;48.156;15.954;2024-03-23T05:21:32;14.00;58.40
37232;DHT22;23125;48.156;15.954;2024-03-23T05:23:58;14.00;58.40
37232;DHT22;23125;48.156;15.954;2024-03-23T05:26:24;14.00;58.40
37232;DHT22;23125;48.156;15.954;2024-03-23T05:28:49;14.00;58.60
37232;DHT22;23125;48.156;15.954;2024-03-23T05:31:29;14.00;58.60
37232;DHT22;23125;48.156;15.954;2024-03-23T05:33:55;14.00;58.70
37232;DHT22;23125;48.156;15.954;2024-03-23T05:36:21;14.00;58.70
37232;DHT22;23125;48.156;15.954;2024-03-23T05:38:47;14.00;58.70
37232;DHT22;23125;48.156;15.954;2024-03-23T05:41:14;14.10;58.80
37232;DHT22;23125;48.156;15.954;2024-03-23T05:43:40;14.10;58.80
37232;DHT22;23125;48.156;15.954;2024-03-23T05:46:05;14.10;58.90
37232;DHT22;23125;48.156;15.954;2024-03-23T05:48:31;14.20;59.00
37232;DHT22;23125;48.156;15.954;2024-03-23T05:50:57;14.20;59.10
37232;DHT22;23125;48.156;15.954;2024-03-23T05:53:24;14.30;59.10
37232;DHT22;23125;48.156;15.954;2024-03-23T05:55:51;14.30;59.10
37232;DHT22;23125;48.156;15.954;2024-03-23T05:58:19;14.30;59.20
37232;DHT22;23125;48.156;15.954;2024-03-23T06:00:48;14.40;59.30
37232;DHT22;23125;48.156;15.954;2024-03-23T06:03:14;14.50;59.40
37232;DHT22;23125;48.156;15.954;2024-03-23T06:05:39;14.50;59.40
37232;DHT22;23125;48.156;15.954;2024-03-23T06:08:05;14.60;59.40
37232;DHT22;23125;48.156;15.954;2024-03-23T06:10:35;14.60;59.20
37232;DHT22;23125;48.156;15.954;2024-03-23T06:13:00;14.60;59.10
37232;DHT22;23125;48.156;15.954;2024-03-23T06:15:26;14.70;59.10
37232;DHT22;23125;48.156;15.954;2024-03-23T06:17:53;14.60;59.00
37232;DHT22;23125;48.156;15.954;2024-03-23T06:20:18;14.70;59.10
37232;DHT22;23125;48.156;15.954;2024-03-23T06:22:44;14.70;59.00
37232;DHT22;23125;48.156;15.954;2024-03-23T06:25:10;14.70;59.00
37232;DHT22;23125;48.156;15.954;2024-03-23T06:27:38;14.80;59.10
37232;DHT22;23125;48.156;15.954;2024-03-23T06:30:07;14.80;59.70
37232;DHT22;23125;48.156;15.954;2024-03-23T06:32:33;14.80;59.10
37232;DHT22;23125;48.156;15.954;2024-03-23T06:35:02;14.90;59.10
37232;DHT22;23125;48.156;15.954;2024-03-23T06:37:34;14.90;59.10
37232;DHT22;23125;48.156;15.954;2024-03-23T06:40:00;14.90;59.10
37232;DHT22;23125;48.156;15.954;2024-03-23T06:42:26;15.00;59.20
37232;DHT22;23125;48.156;15.954;2024-03-23T06:44:51;15.00;59.20
37232;DHT22;23125;48.156;15.954;2024-03-23T06:47:17;15.00;59.30
37232;DHT22;23125;48.156;15.954;2024-03-23T06:49:43;15.10;59.30
37232;DHT22;23125;48.156;15.954;2024-03-23T06:52:09;15.10;59.30
37232;DHT22;23125;48.156;15.954;2024-03-23T06:54:35;15.20;59.40
37232;DHT22;23125;48.156;15.954;2024-03-23T06:57:00;15.20;59.40
37232;DHT22;23125;48.156;15.954;2024-03-23T06:59:26;15.30;59.40
37232;DHT22;23125;48.156;15.954;2024-03-23T07:01:53;15.30;59.40
37232;DHT22;23125;48.156;15.954;2024-03-23T07:04:18;15.40;59.50
37232;DHT22;23125;48.156;15.954;2024-03-23T07:06:45;15.50;59.50
37232;DHT22;23125;48.156;15.954;2024-03-23T07:09:11;15.60;59.60
37232;DHT22;23125;48.156;15.954;2024-03-23T07:11:37;15.60;59.60
37232;DHT22;23125;48.156;15.954;2024-03-23T07:14:03;15.70;59.60
37232;DHT22;23125;48.156;15.954;2024-03-23T07:16:29;15.80;59.80
37232;DHT22;23125;48.156;15.954;2024-03-23T07:18:55;15.90;60.00
37232;DHT22;23125;48.156;15.954;2024-03-23T07:21:21;16.00;60.00
37232;DHT22;23125;48.156;15.954;2024-03-23T07:23:47;16.20;60.00
37232;DHT22;23125;48.156;15.954;2024-03-23T07:26:13;16.30;59.60
37232;DHT22;23125;48.156;15.954;2024-03-23T07:28:39;16.30;59.40
37232;DHT22;23125;48.156;15.954;2024-03-23T07:31:11;16.50;60.90
37232;DHT22;23125;48.156;15.954;2024-03-23T07:33:41;17.30;65.20
37232;DHT22;23125;48.156;15.954;2024-03-23T07:36:07;18.20;65.90
37232;DHT22;23125;48.156;15.954;2024-03-23T07:38:33;19.20;66.10
37232;DHT22;23125;48.156;15.954;2024-03-23T07:41:09;20.20;64.80
37232;DHT22;23125;48.156;15.954;2024-03-23T07:43:37;21.20;63.30
37232;DHT22;23125;48.156;15.954;2024-03-23T07:46:03;22.00;61.20
37232;DHT22;23125;48.156;15.954;2024-03-23T07:48:30;22.80;59.00
37232;DHT22;23125;48.156;15.954;2024-03-23T07:51:07;23.30;57.20
37232;DHT22;23125;48.156;15.954;2024-03-23T07:53:35;23.70;55.60
37232;DHT22;23125;48.156;15.954;2024-03-23T07:56:06;24.30;54.70
37232;DHT22;23125;48.156;15.954;2024-03-23T07:58:33;24.70;53.10
37232;DHT22;23125;48.156;15.954;2024-03-23T08:01:10;25.10;52.30
37232;DHT22;23125;48.156;15.954;2024-03-23T08:03:37;25.70;52.10
37232;DHT22;23125;48.156;15.954;2024-03-23T08:06:17;26.40;51.30
37232;DHT22;23125;48.156;15.954;2024-03-23T08:08:46;27.10;50.80
37232;DHT22;23125;48.156;15.954;2024-03-23T08:11:13;27.80;49.30
37232;DHT22;23125;48.156;15.954;2024-03-23T08:13:41;28.50;48.20
37232;DHT22;23125;48.156;15.954;2024-03-23T08:16:08;29.10;46.20
37232;DHT22;23125;48.156;15.954;2024-03-23T08:18:39;29.30;44.40
37232;DHT22;23125;48.156;15.954;2024-03-23T08:21:06;29.40;43.40
37232;DHT22;23125;48.156;15.954;2024-03-23T08:23:34;29.80;43.00
37232;DHT22;23125;48.156;15.954;2024-03-23T08:26:03;30.30;42.30
37232;DHT22;23125;48.156;15.954;2024-03-23T08:28:29;30.70;40.80
37232;DHT22;23125;48.156;15.954;2024-03-23T08:30:56;30.90;39.60
37232;DHT22;23125;48.156;15.954;2024-03-23T08:33:23;31.20;38.20
37232;DHT22;23125;48.156;15.954;2024-03-23T08:35:55;31.50;37.80
37232;DHT22;23125;48.156;15.954;2024-03-23T08:38:25;31.90;37.30
37232;DHT22;23125;48.156;15.954;2024-03-23T08:41:05;32.10;36.00
37232;DHT22;23125;48.156;15.954;2024-03-23T08:43:35;32.50;35.60
37232;DHT22;23125;48.156;15.954;2024-03-23T08:46:10;32.70;34.10
37232;DHT22;23125;48.156;15.954;2024-03-23T08:48:44;32.70;32.30
37232;DHT22;23125;48.156;15.954;2024-03-23T08:51:15;32.70;32.00
37232;DHT22;23125;48.156;15.954;2024-03-23T08:53:42;32.80;31.70
37232;DHT22;23125;48.156;15.954;2024-03-23T08:56:09;33.00;31.40
37232;DHT22;23125;48.156;15.954;2024-03-23T08:58:36;33.30;31.20
37232;DHT22;23125;48.156;15.954;2024-03-23T09:01:04;33.50;30.60
37232;DHT22;23125;48.156;15.954;2024-03-23T09:03:31;33.60;29.80
37232;DHT22;23125;48.156;15.954;2024-03-23T09:05:57;33.60;29.20
37232;DHT22;23125;48.156;15.954;2024-03-23T09:08:24;33.60;28.80
37232;DHT22;23125;48.156;15.954;2024-03-23T09:10:51;33.60;28.50
37232;DHT22;23125;48.156;15.954;2024-03-23T09:13:17;33.50;28.10
37232;DHT22;23125;48.156;15.954;2024-03-23T09:15:50;33.50;28.00
37232;DHT22;23125;48.156;15.954;2024-03-23T09:18:17;33.50;28.00
37232;DHT22;23125;48.156;15.954;2024-03-23T09:20:43;33.60;27.80
37232;DHT22;23125;48.156;15.954;2024-03-23T09:23:09;33.60;27.40
37232;DHT22;23125;48.156;15.954;2024-03-23T09:25:39;33.60;27.00
37232;DHT22;23125;48.156;15.954;2024-03-23T09:28:06;33.40;26.70
37232;DHT22;23125;48.156;15.954;2024-03-23T09:30:35;33.30;26.80
37232;DHT22;23125;48.156;15.954;2024-03-23T09:33:02;33.20;26.70
37232;DHT22;23125;48.156;15.954;2024-03-23T09:35:29;33.30;27.00
37232;DHT22;23125;48.156;15.954;2024-03-23T09:37:55;33.40;27.00
37232;DHT22;23125;48.156;15.954;2024-03-23T09:40:22;33.30;26.40
37232;DHT22;23125;48.156;15.954;2024-03-23T09:42:51;33.30;26.40
37232;DHT22;23125;48.156;15.954;2024-03-23T09:45:21;33.20;26.20
37232;DHT22;23125;48.156;15.954;2024-03-23T09:47:48;33.10;26.10
37232;DHT22;23125;48.156;15.954;2024-03-23T09:50:14;33.10;26.30
37232;DHT22;23125;48.156;15.954;2024-03-23T09:52:40;33.00;25.90
37232;DHT22;23125;48.156;15.954;2024-03-23T09:55:09;32.90;25.90
37232;DHT22;23125;48.156;15.954;2024-03-23T09:57:35;32.90;25.90
37232;DHT22;23125;48.156;15.954;2024-03-23T10:00:02;33.00;26.20
37232;DHT22;23125;48.156;15.954;2024-03-23T10:02:29;33.10;26.10
37232;DHT22;23125;48.156;15.954;2024-03-23T10:04:55;33.20;26.10
37232;DHT22;23125;48.156;15.954;2024-03-23T10:07:23;33.40;26.30
37232;DHT22;23125;48.156;15.954;2024-03-23T10:09:49;33.70;26.10
37232;DHT22;23125;48.156;15.954;2024-03-23T10:12:19;34.10;26.10
37232;DHT22;23125;48.156;15.954;2024-03-23T10:14:45;34.40;26.40
37232;DHT22;23125;48.156;15.954;2024-03-23T10:17:17;34.50;25.50
37232;DHT22;23125;48.156;15.954;2024-03-23T10:19:48;34.70;25.30
37232;DHT22;23125;48.156;15.954;2024-03-23T10:22:21;34.80;25.10
37232;DHT22;23125;48.156;15.954;2024-03-23T10:24:48;34.90;25.20
37232;DHT22;23125;48.156;15.954;2024-03-23T10:27:21;35.00;25.10
37232;DHT22;23125;48.156;15.954;2024-03-23T10:29:50;35.20;25.10
37232;DHT22;23125;48.156;15.954;2024-03-23T10:32:17;35.10;24.30
37232;DHT22;23125;48.156;15.954;2024-03-23T10:34:44;35.10;24.50
37232;DHT22;23125;48.156;15.954;2024-03-23T10:37:10;35.10;24.50
37232;DHT22;23125;48.156;15.954;2024-03-23T10:39:39;35.10;24.40
37232;DHT22;23125;48.156;15.954;2024-03-23T10:42:09;35.10;24.50
37232;DHT22;23125;48.156;15.954;2024-03-23T10:44:39;35.20;24.50
37232;DHT22;23125;48.156;15.954;2024-03-23T10:47:06;35.10;24.30
37232;DHT22;23125;48.156;15.954;2024-03-23T10:49:33;35.00;24.00
37232;DHT22;23125;48.156;15.954;2024-03-23T10:52:01;34.90;23.80
37232;DHT22;23125;48.156;15.954;2024-03-23T10:54:27;34.50;23.50
37232;DHT22;23125;48.156;15.954;2024-03-23T10:57:14;34.00;23.50
37232;DHT22;23125;48.156;15.954;2024-03-23T10:59:41;33.40;23.80
37232;DHT22;23125;48.156;15.954;2024-03-23T11:02:07;32.80;23.70
37232;DHT22;23125;48.156;15.954;2024-03-23T11:04:43;32.30;24.00
37232;DHT22;23125;48.156;15.954;2024-03-23T11:09:54;31.30;24.80
37232;DHT22;23125;48.156;15.954;2024-03-23T11:14:55;30.40;25.30
37232;DHT22;23125;48.156;15.954;2024-03-23T11:17:23;29.90;25.40
37232;DHT22;23125;48.156;15.954;2024-03-23T11:22:40;28.90;25.90
37232;DHT22;23125;48.156;15.954;2024-03-23T11:25:18;28.50;26.40
37232;DHT22;23125;48.156;15.954;2024-03-23T11:27:46;28.20;27.00
37232;DHT22;23125;48.156;15.954;2024-03-23T11:30:26;27.90;27.20
37232;DHT22;23125;48.156;15.954;2024-03-23T11:32:57;27.60;27.70
37232;DHT22;23125;48.156;15.954;2024-03-23T11:35:27;27.30;28.00
37232;DHT22;23125;48.156;15.954;2024-03-23T11:40:35;26.90;29.00
37232;DHT22;23125;48.156;15.954;2024-03-23T11:43:04;26.80;28.90
37232;DHT22;23125;48.156;15.954;2024-03-23T11:48:05;26.50;29.40
37232;DHT22;23125;48.156;15.954;2024-03-23T11:50:31;26.40;29.80
37232;DHT22;23125;48.156;15.954;2024-03-23T11:53:16;26.30;29.90
37232;DHT22;23125;48.156;15.954;2024-03-23T11:55:50;26.20;30.20
37232;DHT22;23125;48.156;15.954;2024-03-23T11:58:18;26.10;30.10
37232;DHT22;23125;48.156;15.954;2024-03-23T12:03:18;25.80;30.40
37232;DHT22;23125;48.156;15.954;2024-03-23T12:05:48;25.70;30.60
37232;DHT22;23125;48.156;15.954;2024-03-23T12:08:21;25.60;30.70
37232;DHT22;23125;48.156;15.954;2024-03-23T12:11:06;25.60;31.10
37232;DHT22;23125;48.156;15.954;2024-03-23T12:13:33;25.50;31.10
37232;DHT22;23125;48.156;15.954;2024-03-23T12:18:41;25.20;31.00
37232;DHT22;23125;48.156;15.954;2024-03-23T12:21:07;25.10;31.30
37232;DHT22;23125;48.156;15.954;2024-03-23T12:23:34;24.90;31.50
37232;DHT22;23125;48.156;15.954;2024-03-23T12:26:01;24.70;31.90
37232;DHT22;23125;48.156;15.954;2024-03-23T12:28:27;24.40;32.70
37232;DHT22;23125;48.156;15.954;2024-03-23T12:30:53;24.20;33.50
37232;DHT22;23125;48.156;15.954;2024-03-23T12:33:20;24.00;34.10
37232;DHT22;23125;48.156;15.954;2024-03-23T12:35:50;23.80;34.70
37232;DHT22;23125;48.156;15.954;2024-03-23T12:38:16;23.60;35.40
37232;DHT22;23125;48.156;15.954;2024-03-23T12:40:47;23.40;36.00
37232;DHT22;23125;48.156;15.954;2024-03-23T12:43:16;23.20;36.40
37232;DHT22;23125;48.156;15.954;2024-03-23T12:45:49;23.10;36.70
37232;DHT22;23125;48.156;15.954;2024-03-23T12:48:16;22.80;37.00
37232;DHT22;23125;48.156;15.954;2024-03-23T12:50:42;22.60;37.30
37232;DHT22;23125;48.156;15.954;2024-03-23T12:53:08;22.30;37.70
37232;DHT22;23125;48.156;15.954;2024-03-23T12:55:37;22.00;38.30
37232;DHT22;23125;48.156;15.954;2024-03-23T12:58:03;21.80;38.80
37232;DHT22;23125;48.156;15.954;2024-03-23T13:00:30;21.50;39.10
37232;DHT22;23125;48.156;15.954;2024-03-23T13:02:56;21.30;39.80
37232;DHT22;23125;48.156;15.954;2024-03-23T13:05:22;21.10;40.60
37232;DHT22;23125;48.156;15.954;2024-03-23T13:07:48;21.00;41.10
37232;DHT22;23125;48.156;15.954;2024-03-23T13:10:14;20.80;41.50
37232;DHT22;23125;48.156;15.954;2024-03-23T13:12:40;20.60;41.60
37232;DHT22;23125;48.156;15.954;2024-03-23T13:15:08;20.40;41.80
37232;DHT22;23125;48.156;15.954;2024-03-23T13:17:35;20.30;42.30
37232;DHT22;23125;48.156;15.954;2024-03-23T13:20:00;20.20;42.80
37232;DHT22;23125;48.156;15.954;2024-03-23T13:22:26;20.00;43.20
37232;DHT22;23125;48.156;15.954;2024-03-23T13:24:52;19.90;43.40
37232;DHT22;23125;48.156;15.954;2024-03-23T13:27:18;19.90;43.70
37232;DHT22;23125;48.156;15.954;2024-03-23T13:29:44;19.80;43.90
37232;DHT22;23125;48.156;15.954;2024-03-23T13:32:12;19.80;44.00
37232;DHT22;23125;48.156;15.954;2024-03-23T13:34:38;19.70;44.10
37232;DHT22;23125;48.156;15.954;2024-03-23T13:37:04;19.60;44.00
37232;DHT22;23125;48.156;15.954;2024-03-23T13:39:31;19.60;44.20
37232;DHT22;23125;48.156;15.954;2024-03-23T13:41:56;19.50;44.40
37232;DHT22;23125;48.156;15.954;2024-03-23T13:44:22;19.40;44.30
37232;DHT22;23125;48.156;15.954;2024-03-23T13:46:48;19.30;44.00
37232;DHT22;23125;48.156;15.954;2024-03-23T13:49:28;19.20;43.90
37232;DHT22;23125;48.156;15.954;2024-03-23T13:51:55;19.00;43.80
37232;DHT22;23125;48.156;15.954;2024-03-23T13:54:21;18.90;44.00
37232;DHT22;23125;48.156;15.954;2024-03-23T13:56:49;18.70;44.10
37232;DHT22;23125;48.156;15.954;2024-03-23T13:59:15;18.60;44.30
37232;DHT22;23125;48.156;15.954;2024-03-23T14:01:41;18.50;44.20
37232;DHT22;23125;48.156;15.954;2024-03-23T14:04:07;18.30;44.40
37232;DHT22;23125;48.156;15.954;2024-03-23T14:06:33;18.20;44.40
37232;DHT22;23125;48.156;15.954;2024-03-23T14:08:59;18.00;44.60
37232;DHT22;23125;48.156;15.954;2024-03-23T14:11:25;17.90;45.00
37232;DHT22;23125;48.156;15.954;2024-03-23T14:13:52;17.90;44.90
37232;DHT22;23125;48.156;15.954;2024-03-23T14:16:18;17.70;44.80
37232;DHT22;23125;48.156;15.954;2024-03-23T14:18:47;17.60;45.00
37232;DHT22;23125;48.156;15.954;2024-03-23T14:21:13;17.50;45.00
37232;DHT22;23125;48.156;15.954;2024-03-23T14:23:39;17.40;45.20
37232;DHT22;23125;48.156;15.954;2024-03-23T14:26:07;17.20;45.30
37232;DHT22;23125;48.156;15.954;2024-03-23T14:28:34;17.10;45.50
37232;DHT22;23125;48.156;15.954;2024-03-23T14:31:01;17.00;45.50
37232;DHT22;23125;48.156;15.954;2024-03-23T14:33:27;16.90;45.70
37232;DHT22;23125;48.156;15.954;2024-03-23T14:35:53;16.80;46.00
37232;DHT22;23125;48.156;15.954;2024-03-23T14:38:21;16.70;46.30
37232;DHT22;23125;48.156;15.954;2024-03-23T14:40:47;16.60;46.60
37232;DHT22;23125;48.156;15.954;2024-03-23T14:43:13;16.60;46.80
37232;DHT22;23125;48.156;15.954;2024-03-23T14:46:13;16.50;46.90
37232;DHT22;23125;48.156;15.954;2024-03-23T14:48:41;16.40;47.00
37232;DHT22;23125;48.156;15.954;2024-03-23T14:51:12;16.30;47.10
37232;DHT22;23125;48.156;15.954;2024-03-23T14:53:41;16.20;47.30
37232;DHT22;23125;48.156;15.954;2024-03-23T14:56:08;16.10;47.50
37232;DHT22;23125;48.156;15.954;2024-03-23T14:58:36;16.00;47.50
37232;DHT22;23125;48.156;15.954;2024-03-23T15:01:05;15.90;47.60
37232;DHT22;23125;48.156;15.954;2024-03-23T15:03:36;15.80;47.80
37232;DHT22;23125;48.156;15.954;2024-03-23T15:06:02;15.60;48.00
37232;DHT22;23125;48.156;15.954;2024-03-23T15:08:28;15.50;48.10
37232;DHT22;23125;48.156;15.954;2024-03-23T15:10:54;15.50;48.40
37232;DHT22;23125;48.156;15.954;2024-03-23T15:13:21;15.40;48.40
37232;DHT22;23125;48.156;15.954;2024-03-23T15:15:48;15.30;48.50
37232;DHT22;23125;48.156;15.954;2024-03-23T15:18:15;15.30;48.40
37232;DHT22;23125;48.156;15.954;2024-03-23T15:20:51;15.20;48.60
37232;DHT22;23125;48.156;15.954;2024-03-23T15:23:17;15.10;48.60
37232;DHT22;23125;48.156;15.954;2024-03-23T15:25:42;15.10;48.60
37232;DHT22;23125;48.156;15.954;2024-03-23T15:28:08;15.00;48.70
37232;DHT22;23125;48.156;15.954;2024-03-23T15:30:35;14.90;48.80
37232;DHT22;23125;48.156;15.954;2024-03-23T15:33:01;14.90;49.10
37232;DHT22;23125;48.156;15.954;2024-03-23T15:35:28;14.80;49.00
37232;DHT22;23125;48.156;15.954;2024-03-23T15:37:54;14.70;49.10
37232;DHT22;23125;48.156;15.954;2024-03-23T15:40:20;14.50;49.10
37232;DHT22;23125;48.156;15.954;2024-03-23T15:42:46;14.50;49.40
37232;DHT22;23125;48.156;15.954;2024-03-23T15:45:12;14.40;49.50
37232;DHT22;23125;48.156;15.954;2024-03-23T15:47:38;14.30;49.70
37232;DHT22;23125;48.156;15.954;2024-03-23T15:50:04;14.30;49.90
37232;DHT22;23125;48.156;15.954;2024-03-23T15:52:35;14.30;50.00
37232;DHT22;23125;48.156;15.954;2024-03-23T15:55:06;14.20;50.10
37232;DHT22;23125;48.156;15.954;2024-03-23T15:57:35;14.20;50.20
37232;DHT22;23125;48.156;15.954;2024-03-23T16:00:05;14.10;50.30
37232;DHT22;23125;48.156;15.954;2024-03-23T16:02:31;14.10;50.40
37232;DHT22;23125;48.156;15.954;2024-03-23T16:04:57;14.10;50.60
37232;DHT22;23125;48.156;15.954;2024-03-23T16:07:24;14.00;50.40
37232;DHT22;23125;48.156;15.954;2024-03-23T16:09:49;14.00;50.50
37232;DHT22;23125;48.156;15.954;2024-03-23T16:12:15;14.00;50.50
37232;DHT22;23125;48.156;15.954;2024-03-23T16:14:42;14.00;50.70
37232;DHT22;23125;48.156;15.954;2024-03-23T16:17:08;13.90;50.60
37232;DHT22;23125;48.156;15.954;2024-03-23T16:19:34;13.90;50.70
37232;DHT22;23125;48.156;15.954;2024-03-23T16:22:00;13.90;50.70
37232;DHT22;23125;48.156;15.954;2024-03-23T16:24:26;13.90;50.70
37232;DHT22;23125;48.156;15.954;2024-03-23T16:26:52;13.80;50.60